| time (UTC) | temp C | wind direction | speed KPH | gust KPH | rain 1hr cm | rain 24hr cm | rain mn cm | humidity % | barometer mb |
| 20260906200055 | 31 | 360 | 22.5 | 35.4 | 0.00 | 0.05 | 0.05 | 51 | 1014.2 |
| 20260906194602 | 31 | 360 | 19.3 | 30.6 | 0.00 | 0.05 | 0.05 | 54 | 1014.5 |
| 20260906193057 | 31 | 360 | 16.1 | 30.6 | 0.00 | 0.05 | 0.05 | 57 | 1014.7 |
| 20260906191610 | 30 | 360 | 22.5 | 29.0 | 0.00 | 0.05 | 0.05 | 57 | 1014.9 |
| 20260906184606 | 29 | 360 | 19.3 | 30.6 | 0.00 | 0.05 | 0.05 | 62 | 1015.2 |
| 20260906183057 | 28 | 360 | 17.7 | 27.4 | 0.00 | 0.05 | 0.05 | 64 | 1015.2 |
| 20260906181557 | 28 | 360 | 19.3 | 30.6 | 0.03 | 0.05 | 0.05 | 67 | 1015.4 |
| 20260906180113 | 27 | 360 | 17.7 | 29.0 | 0.03 | 0.05 | 0.05 | 70 | 1015.9 |
| 20260906174601 | 26 | 360 | 14.5 | 22.5 | 0.03 | 0.05 | 0.05 | 73 | 1016.3 |
| 20260906173105 | 26 | 360 | 17.7 | 24.1 | 0.03 | 0.05 | 0.05 | 73 | 1016.1 |
| 20260906171604 | 25 | 360 | 12.9 | 20.9 | 0.00 | 0.03 | 0.03 | 78 | 1016.2 |
| 20260906170100 | 23 | 360 | 9.7 | 16.1 | 0.00 | 0.03 | 0.03 | 83 | 1016.5 |
| 20260906164557 | 22 | 360 | 11.3 | 17.7 | 0.00 | 0.03 | 0.03 | 84 | 1016.9 |
| 20260906163122 | 22 | 360 | 12.9 | 17.7 | 0.00 | 0.03 | 0.03 | 85 | 1017.4 |
| 20260906161559 | 21 | 360 | 3.2 | 14.5 | 0.00 | 0.03 | 0.03 | 85 | 1017.8 |
| 20260906160100 | 21 | 360 | 8.0 | 14.5 | 0.00 | 0.03 | 0.03 | 85 | 1018.2 |
| 20260906154558 | 21 | 0 | 0.0 | 0.0 | 0.00 | 0.03 | 0.03 | 85 | 1018.3 |
| 20260906153106 | 21 | 0 | 0.0 | 14.5 | 0.00 | 0.03 | 0.03 | 85 | 1018.6 |
| 20260906151557 | 21 | 0 | 0.0 | 6.4 | 0.00 | 0.03 | 0.03 | 85 | 1018.8 |
| 20260906150106 | 21 | 0 | 0.0 | 12.9 | 0.00 | 0.03 | 0.03 | 85 | 1019.2 |
| 20260906144602 | 21 | 360 | 6.4 | 17.7 | 0.00 | 0.03 | 0.03 | 85 | 1018.6 |
| 20260906143100 | 21 | 360 | 6.4 | 19.3 | 0.00 | 0.03 | 0.03 | 85 | 1018.6 |
| 20260906141558 | 21 | 0 | 3.2 | 8.0 | 0.00 | 0.03 | 0.03 | 85 | 1018.1 |
| 20260906140107 | 21 | 0 | 0.0 | 1.6 | 0.00 | 0.03 | 0.03 | 84 | 1018.0 |
| 20260906134557 | 21 | 0 | 0.0 | 14.5 | 0.00 | 0.03 | 0.03 | 84 | 1017.7 |
| 20260906133129 | 21 | 360 | 9.7 | 17.7 | 0.00 | 0.03 | 0.03 | 84 | 1017.2 |
| 20260906131615 | 21 | 360 | 9.7 | 19.3 | 0.00 | 0.03 | 0.03 | 84 | 1016.8 |
| 20260906130107 | 21 | 0 | 6.4 | 17.7 | 0.00 | 0.03 | 0.03 | 84 | 1017.7 |
| 20260906124559 | 21 | 360 | 6.4 | 19.3 | 0.00 | 0.03 | 0.03 | 84 | 1018.0 |
| 20260906123058 | 21 | 360 | 8.0 | 24.1 | 0.00 | 0.03 | 0.03 | 84 | 1018.0 |
| 20260906121559 | 21 | 360 | 12.9 | 24.1 | 0.03 | 0.03 | 0.03 | 84 | 1018.1 |
| 20260906120104 | 21 | 360 | 17.7 | 30.6 | 0.03 | 0.03 | 0.03 | 84 | 1018.1 |
| 20260906114557 | 21 | 360 | 14.5 | 40.2 | 0.03 | 0.03 | 0.03 | 84 | 1017.9 |
| 20260906113058 | 21 | 360 | 20.9 | 33.8 | 0.03 | 0.03 | 0.03 | 84 | 1017.7 |
| 20260906111554 | 22 | 360 | 19.3 | 32.2 | 0.00 | 0.00 | 0.00 | 82 | 1017.2 |
| 20260906110058 | 23 | 360 | 22.5 | 37.0 | 0.00 | 0.00 | 0.00 | 78 | 1017.0 |
| 20260906104559 | 25 | 360 | 25.7 | 45.1 | 0.00 | 0.00 | 0.00 | 72 | 1016.4 |
| 20260906103100 | 23 | 360 | 6.4 | 29.0 | 0.00 | 0.00 | 0.00 | 74 | 1015.9 |
| 20260906101603 | 23 | 360 | 3.2 | 6.4 | 0.00 | 0.00 | 0.00 | 76 | 1014.6 |
| 20260906100111 | 23 | 360 | 4.8 | 9.7 | 0.00 | 0.00 | 0.00 | 77 | 1013.9 |
| 20260906094616 | 23 | 360 | 4.8 | 8.0 | 0.00 | 0.00 | 0.00 | 77 | 1014.0 |
| 20260906093100 | 23 | 360 | 3.2 | 6.4 | 0.00 | 0.00 | 0.00 | 76 | 1013.7 |
| 20260906091601 | 23 | 360 | 6.4 | 12.9 | 0.00 | 0.00 | 0.00 | 76 | 1013.7 |
| 20260906090115 | 23 | 360 | 6.4 | 12.9 | 0.00 | 0.00 | 0.00 | 76 | 1013.6 |
| 20260906084602 | 23 | 360 | 8.0 | 12.9 | 0.00 | 0.00 | 0.00 | 75 | 1013.6 |
| 20260906083106 | 23 | 360 | 6.4 | 12.9 | 0.00 | 0.00 | 0.00 | 75 | 1013.7 |
| 20260906081559 | 23 | 360 | 6.4 | 9.7 | 0.00 | 0.00 | 0.00 | 74 | 1014.0 |
| 20260906074602 | 23 | 360 | 3.2 | 6.4 | 0.00 | 0.00 | 0.00 | 74 | 1014.1 |
| 20260906073104 | 23 | 0 | 0.0 | 4.8 | 0.00 | 0.00 | 0.00 | 72 | 1014.1 |
| 20260906071600 | 23 | 360 | 3.2 | 9.7 | 0.00 | 0.00 | 0.00 | 72 | 1014.2 |
| 20260906070059 | 23 | 360 | 0.0 | 4.8 | 0.00 | 0.00 | 0.00 | 72 | 1014.3 |
| 20260906064602 | 23 | 0 | 3.2 | 6.4 | 0.00 | 0.00 | 0.00 | 73 | 1014.4 |
| 20260906063100 | 23 | 0 | 0.0 | 0.0 | 0.00 | 0.00 | 0.00 | 71 | 1014.3 |
| 20260906061559 | 23 | 0 | 0.0 | 0.0 | 0.00 | 0.00 | 0.00 | 69 | 1014.2 |
| 20260906060104 | 25 | 0 | 0.0 | 1.6 | 0.00 | 0.00 | 0.00 | 66 | 1014.1 |
| 20260906054559 | 25 | 360 | 4.8 | 9.7 | 0.00 | 0.00 | 0.00 | 65 | 1014.0 |
| 20260906053056 | 25 | 360 | 6.4 | 12.9 | 0.00 | 0.00 | 0.00 | 64 | 1014.2 |
| 20260906051602 | 25 | 360 | 6.4 | 12.9 | 0.00 | 0.00 | 0.00 | 62 | 1014.2 |
| 20260906050107 | 26 | 360 | 8.0 | 12.9 | 0.00 | 0.00 | 0.00 | 60 | 1014.0 |
| 20260906044600 | 26 | 360 | 4.8 | 9.7 | 0.00 | 0.00 | 0.00 | 58 | 1014.0 |
| 20260906043058 | 27 | 360 | 3.2 | 12.9 | 0.00 | 0.00 | 0.00 | 54 | 1014.1 |
| 20260906041604 | 28 | 360 | 6.4 | 9.7 | 0.00 | 0.00 | 0.00 | 52 | 1013.9 |
| 20260906040100 | 28 | 360 | 6.4 | 12.9 | 0.00 | 0.00 | 0.00 | 51 | 1014.0 |
| 20260906034602 | 28 | 360 | 3.2 | 9.7 | 0.00 | 0.00 | 0.00 | 51 | 1014.0 |
| 20260906033101 | 28 | 360 | 1.6 | 8.0 | 0.00 | 0.00 | 0.00 | 52 | 1014.0 |
| 20260906031558 | 28 | 0 | 0.0 | 8.0 | 0.00 | 0.00 | 0.00 | 51 | 1013.8 |
| 20260906030059 | 28 | 360 | 3.2 | 12.9 | 0.00 | 0.00 | 0.00 | 52 | 1013.6 |
| 20260906024555 | 28 | 360 | 6.4 | 16.1 | 0.00 | 0.00 | 0.00 | 51 | 1013.5 |
| 20260906023059 | 28 | 360 | 6.4 | 12.9 | 0.00 | 0.00 | 0.00 | 53 | 1013.3 |
| 20260906021600 | 29 | 360 | 3.2 | 6.4 | 0.00 | 0.00 | 0.00 | 52 | 1012.9 |
| 20260906020101 | 30 | 0 | 0.0 | 6.4 | 0.00 | 0.00 | 0.00 | 50 | 1012.9 |
| 20260906014608 | 30 | 15 | 3.2 | 8.0 | 0.00 | 0.00 | 0.00 | 48 | 1013.0 |
| 20260906013058 | 31 | 15 | 6.4 | 14.5 | 0.00 | 0.00 | 0.00 | 47 | 1012.6 |
| 20260906011615 | 31 | 15 | 9.7 | 16.1 | 0.00 | 0.00 | 0.00 | 45 | 1012.4 |
| 20260906010100 | 32 | 21 | 12.9 | 25.7 | 0.00 | 0.00 | 0.00 | 43 | 1012.4 |
| 20260906004605 | 32 | 23 | 16.1 | 27.4 | 0.00 | 0.00 | 0.00 | 43 | 1012.4 |
| 20260906003059 | 33 | 17 | 17.7 | 30.6 | 0.00 | 0.00 | 0.00 | 42 | 1012.2 |
| 20260906001603 | 34 | 360 | 19.3 | 32.2 | 0.00 | 0.00 | 0.00 | 40 | 1012.2 |
| 20260906000059 | 34 | 360 | 19.3 | 32.2 | 0.00 | 0.00 | 0.00 | 40 | 1012.3 |
| 20260905234603 | 35 | 360 | 25.7 | 35.4 | 0.00 | 0.00 | 0.00 | 39 | 1012.0 |
| 20260905233111 | 36 | 360 | 27.4 | 45.1 | 0.00 | 0.00 | 0.00 | 38 | 1012.0 |
| 20260905231559 | 36 | 360 | 27.4 | 40.2 | 0.00 | 0.00 | 0.00 | 37 | 1011.8 |
| 20260905230103 | 37 | 360 | 20.9 | 33.8 | 0.00 | 0.00 | 0.00 | 34 | 1011.7 |
| 20260905224617 | 37 | 360 | 20.9 | 29.0 | 0.00 | 0.00 | 0.00 | 33 | 1011.6 |
| 20260905223107 | 37 | 360 | 17.7 | 27.4 | 0.00 | 0.00 | 0.00 | 34 | 1011.5 |
| 20260905221555 | 37 | 360 | 17.7 | 33.8 | 0.00 | 0.00 | 0.00 | 34 | 1011.6 |
| 20260905220104 | 37 | 360 | 17.7 | 29.0 | 0.00 | 0.00 | 0.00 | 35 | 1011.7 |
| 20260905214604 | 37 | 360 | 25.7 | 33.8 | 0.00 | 0.00 | 0.00 | 34 | 1011.8 |
| 20260905213059 | 37 | 360 | 24.1 | 38.6 | 0.00 | 0.00 | 0.00 | 34 | 1012.0 |
| 20260905211600 | 37 | 360 | 20.9 | 32.2 | 0.00 | 0.00 | 0.00 | 34 | 1012.4 |
| 20260905210055 | 37 | 360 | 16.1 | 32.2 | 0.00 | 0.00 | 0.00 | 35 | 1012.5 |
| 20260905204559 | 37 | 360 | 19.3 | 29.0 | 0.00 | 0.00 | 0.00 | 35 | 1012.7 |
| 20260905203104 | 37 | 360 | 19.3 | 30.6 | 0.00 | 0.00 | 0.00 | 34 | 1012.9 |
| 20260905201607 | 37 | 360 | 22.5 | 33.8 | 0.00 | 0.00 | 0.00 | 34 | 1013.2 |